createdAt,value
2023-01-15T00:01:21.068Z,98561.1580033534
2023-01-15T00:04:18.486Z,98556.63533145696
2023-01-15T00:07:17.013Z,98547.89645306341
2023-01-15T00:11:16.861Z,98546.86772309041
2023-01-15T00:14:16.599Z,98545.8108181467
2023-01-15T00:17:16.337Z,98542.82873391751
2023-01-15T00:21:15.735Z,98544.98147880302
2023-01-15T00:31:16.109Z,98536.7166589483
2023-01-15T00:34:16.517Z,98536.90776146959
2023-01-15T00:37:16.473Z,98534.24845747114
2023-01-15T00:41:16.026Z,98540.19316543768
2023-01-15T00:44:16.880Z,98545.11037795765
2023-01-15T00:47:16.444Z,98549.36206881903
2023-01-15T00:51:16.778Z,98552.45866037176
2023-01-15T00:54:17.482Z,98555.7794374339
2023-01-15T00:57:17.285Z,98550.9978779715
2023-01-15T01:01:16.121Z,98554.36816825569
2023-01-15T01:04:16.729Z,98555.46138742128
2023-01-15T01:07:16.804Z,98550.46083247264
2023-01-15T01:11:18.117Z,98545.7814944552
2023-01-15T01:14:16.600Z,98548.62073266675
2023-01-15T01:17:16.355Z,98547.30904915981
2023-01-15T01:21:16.095Z,98548.28314841424
2023-01-15T01:24:18.311Z,98553.37101982425
2023-01-15T01:27:18.802Z,98549.16938485176
2023-01-15T01:31:16.226Z,98548.95227830915
2023-01-15T01:34:16.468Z,98547.0439315479
2023-01-15T01:37:16.519Z,98539.15750663375
2023-01-15T01:41:16.332Z,98538.22264404986
2023-01-15T01:45:25.859Z,98534.2828568089
2023-01-15T01:47:19.404Z,98528.92560639052
2023-01-15T01:51:17.858Z,98523.87974893303
2023-01-15T01:54:20.495Z,98526.86147998854
2023-01-15T01:57:17.719Z,98522.0215844505
2023-01-15T02:01:17.249Z,98528.68510639688
2023-01-15T02:04:19.925Z,98528.16557767798
2023-01-15T02:07:17.396Z,98520.99055159614
2023-01-15T02:11:19.145Z,98512.68664479935
2023-01-15T02:14:23.070Z,98514.32401040502
2023-01-15T02:17:24.712Z,98511.45733335993
2023-01-15T02:21:24.032Z,98506.52713204795
2023-01-15T02:24:26.559Z,98509.89283971472
2023-01-15T02:27:18.814Z,98506.38159353103
2023-01-15T02:31:20.509Z,98505.77241593465
2023-01-15T02:34:21.964Z,98503.52844273929
2023-01-15T02:37:23.100Z,98506.60438943577
2023-01-15T02:41:35.913Z,98500.6486251293
2023-01-15T02:44:19.455Z,98496.88225802935
2023-01-15T02:47:18.809Z,98489.89140872292
2023-01-15T02:51:21.206Z,98481.69074615891
2023-01-15T02:54:17.722Z,98476.37159365132
2023-01-15T02:57:21.137Z,98477.30822847926
2023-01-15T03:01:20.383Z,98468.58430522538
2023-01-15T03:04:21.778Z,98469.09878964552
2023-01-15T03:07:20.943Z,98468.75472282895
2023-01-15T03:11:18.564Z,98464.032586711
2023-01-15T03:14:20.925Z,98468.3063309159
2023-01-15T03:17:21.194Z,98465.99409879949
2023-01-15T03:21:20.219Z,98455.38131077836
2023-01-15T03:24:24.150Z,98454.92431047729
2023-01-15T03:27:16.270Z,98453.41349457487
2023-01-15T03:31:15.925Z,98450.35518422557
2023-01-15T03:34:16.196Z,98447.03148565882
2023-01-15T03:37:17.348Z,98447.55164616944
2023-01-15T03:41:23.872Z,98447.36140981212
2023-01-15T03:44:26.995Z,98444.7544926451
2023-01-15T03:47:28.133Z,98444.14232161059
2023-01-15T03:51:22.055Z,98443.96765243348
2023-01-15T03:54:25.093Z,98448.24146958074
2023-01-15T03:57:25.888Z,98456.12705040521
2023-01-15T04:01:21.293Z,98451.65472290509
2023-01-15T04:04:17.801Z,98448.63435421746
2023-01-15T04:07:17.791Z,98450.39850293729
2023-01-15T04:11:22.535Z,98439.2222370226
2023-01-15T04:14:16.192Z,98432.01727818385
2023-01-15T04:17:16.255Z,98429.54316599794
2023-01-15T04:21:15.999Z,98425.57999296385
2023-01-15T04:24:16.494Z,98422.62257680905
2023-01-15T04:27:16.420Z,98424.3824174937
2023-01-15T04:31:16.976Z,98412.64108818566
2023-01-15T04:34:16.861Z,98410.12035439444
2023-01-15T04:37:18.659Z,98408.59860771333
2023-01-15T04:51:17.043Z,98380.758062116
2023-01-15T04:54:17.756Z,98371.64581707126
2023-01-15T04:57:16.856Z,98371.98216520039
2023-01-15T05:01:17.431Z,98378.72665910856
2023-01-15T05:04:16.734Z,98379.12212942864
2023-01-15T05:07:16.531Z,98372.4478612725
2023-01-15T05:11:16.702Z,98362.10050275821
2023-01-15T05:14:16.871Z,98373.38154538668
2023-01-15T05:17:17.412Z,98370.78818437488
2023-01-15T05:21:19.428Z,98366.93959043898
2023-01-15T05:24:17.304Z,98371.91338665558
2023-01-15T05:27:16.174Z,98365.85424625457
2023-01-15T05:31:18.348Z,98361.37705763336
2023-01-15T05:34:16.391Z,98361.45720296305
2023-01-15T05:37:16.232Z,98364.45367338888
2023-01-15T05:42:21.020Z,98357.3151375065
2023-01-15T05:44:18.805Z,98357.92129795649
2023-01-15T05:47:16.223Z,98367.73564173379
2023-01-15T05:51:16.632Z,98365.2449760534
2023-01-15T05:54:22.583Z,98360.49496436407
2023-01-15T05:57:16.854Z,98358.10976118923
2023-01-15T06:01:16.864Z,98356.58443088911
2023-01-15T06:04:22.198Z,98355.79812245879
2023-01-15T06:07:18.371Z,98365.35752400906
2023-01-15T06:11:16.233Z,98356.65679990166
2023-01-15T06:14:16.895Z,98343.7333917706
2023-01-15T06:17:16.635Z,98342.42002110028
2023-01-15T06:21:17.165Z,98347.58737067007
2023-01-15T06:24:18.217Z,98342.1965949384
2023-01-15T06:27:16.871Z,98328.50838876457
2023-01-15T06:31:18.765Z,98325.64806012914
2023-01-15T06:34:16.831Z,98327.86708664203
2023-01-15T06:37:16.870Z,98326.91019178937
2023-01-15T06:51:19.796Z,98318.88620044259
2023-01-15T06:54:16.744Z,98309.97557356059
2023-01-15T06:57:17.022Z,98308.0240227922
2023-01-15T07:01:16.746Z,98304.75511128803
2023-01-15T07:04:17.346Z,98309.87863881518
2023-01-15T07:07:18.483Z,98313.34025311784
2023-01-15T07:11:17.994Z,98315.28317819451
2023-01-15T07:14:17.693Z,98313.48645361171
2023-01-15T07:17:16.641Z,98317.19376839501
2023-01-15T07:21:16.395Z,98316.61702636574
2023-01-15T07:24:17.192Z,98308.85015165115
2023-01-15T07:27:16.966Z,98312.34629461702
2023-01-15T07:31:16.490Z,98305.43582971528
2023-01-15T07:34:17.247Z,98308.37195838102
2023-01-15T07:37:16.803Z,98305.6938692546
2023-01-15T07:51:16.024Z,98306.84466002214
2023-01-15T07:54:16.451Z,98308.13254361515
2023-01-15T07:57:20.231Z,98311.03207983304
2023-01-15T08:01:16.957Z,98318.47859313818
2023-01-15T08:04:16.844Z,98319.55364232798
2023-01-15T08:07:16.713Z,98315.40192714828
2023-01-15T08:21:18.139Z,98304.29919335706
2023-01-15T08:24:19.654Z,98307.412481745
2023-01-15T08:27:20.397Z,98318.5264270333
2023-01-15T08:31:19.545Z,98315.29529499597
2023-01-15T08:34:25.167Z,98319.9030452633
2023-01-15T08:37:19.944Z,98320.83071521057
2023-01-15T08:41:16.828Z,98319.66869560839
2023-01-15T08:44:17.382Z,98312.92812944885
2023-01-15T08:47:17.618Z,98315.58031265819
2023-01-15T08:51:16.901Z,98313.34202311786
2023-01-15T08:54:18.884Z,98308.68829021702
2023-01-15T08:57:17.093Z,98306.33399535417
2023-01-15T09:01:22.130Z,98308.22378428424
2023-01-15T09:04:21.759Z,98302.00549208689
2023-01-15T09:07:19.355Z,98309.22246804874
2023-01-15T09:11:22.973Z,98309.5773764783
2023-01-15T09:14:55.354Z,98302.85917131224
2023-01-15T09:17:18.329Z,98311.43686266648
2023-01-15T09:21:17.345Z,98308.7942395077
2023-01-15T09:24:18.377Z,98307.93602683286
2023-01-15T09:27:18.599Z,98309.40182921384
2023-01-15T09:31:17.307Z,98307.06732451764
2023-01-15T09:34:24.867Z,98308.13143527754
2023-01-15T09:37:21.449Z,98301.06899874886
2023-01-15T09:42:34.818Z,98300.02735459803
2023-01-15T09:44:31.570Z,98303.2123989642
2023-01-15T09:47:25.853Z,98310.24201252162
2023-01-15T09:51:29.264Z,98309.30789260367
2023-01-15T09:54:31.753Z,98301.46683647294
2023-01-15T09:57:24.969Z,98307.12027055788
2023-01-15T10:01:26.867Z,98293.57265727759
2023-01-15T10:04:40.215Z,98280.20309198386
2023-01-15T10:07:42.210Z,98280.65196407231
2023-01-15T10:11:38.037Z,98274.27225918732
2023-01-15T10:14:34.860Z,98267.29503176983
2023-01-15T10:17:26.102Z,98260.43384354279
2023-01-15T10:21:31.008Z,98248.48405650629
2023-01-15T10:24:22.979Z,98258.17456237544
2023-01-15T10:27:20.584Z,98256.31766400204
2023-01-15T10:31:21.853Z,98238.13700152513
2023-01-15T10:35:04.282Z,98245.06845957847
2023-01-15T10:37:28.076Z,98226.25073979453
2023-01-15T10:41:44.617Z,98231.44600652218
2023-01-15T10:44:38.420Z,98227.65307475146
2023-01-15T10:47:32.527Z,98220.49905224537
2023-01-15T10:51:29.802Z,98216.00555836296
2023-01-15T10:54:29.304Z,98212.68703160904
2023-01-15T10:57:38.244Z,98196.05102840297
2023-01-15T11:01:26.647Z,98196.6742424047
2023-01-15T11:04:19.454Z,98193.19305322003
2023-01-15T11:07:21.148Z,98207.89507583402
2023-01-15T11:11:25.421Z,98197.23973896333
2023-01-15T11:31:24.943Z,98170.20000118588
2023-01-15T11:34:22.568Z,98162.00896777572
2023-01-15T11:37:19.559Z,98162.22593094393
2023-01-15T11:41:33.627Z,98146.92976587787
2023-01-15T11:51:50.316Z,98128.38211599573
2023-01-15T11:54:31.987Z,98117.28654359623
2023-01-15T11:57:31.878Z,98119.53224345039
2023-01-15T12:01:25.146Z,98109.2547258695
2023-01-15T12:04:32.351Z,98093.57787890785
2023-01-15T12:07:18.625Z,98096.39750762399
2023-01-15T12:11:31.509Z,98106.51150363205
2023-01-15T12:15:44.940Z,98093.39763269517
2023-01-15T12:17:37.673Z,98092.90137801207
2023-01-15T12:21:33.006Z,98090.83691751052
2023-01-15T12:24:35.631Z,98099.30100190359
2023-01-15T12:27:46.303Z,98097.15724037442
2023-01-15T12:31:23.543Z,98091.50493715951
2023-01-15T12:34:23.043Z,98087.79871263386
2023-01-15T12:37:25.411Z,98076.60509740491
2023-01-15T12:41:23.165Z,98077.2431118581
2023-01-15T12:45:26.302Z,98077.64263804108
2023-01-15T12:47:21.743Z,98067.29250645413
2023-01-15T12:51:25.631Z,98056.28127092044
2023-01-15T12:54:28.145Z,98052.24456615456
2023-01-15T12:57:29.713Z,98053.95167770548
2023-01-15T13:01:25.768Z,98043.30636467997
2023-01-15T13:04:24.707Z,98044.29543200304
2023-01-15T13:07:28.092Z,98031.74332442053
2023-01-15T13:11:29.191Z,98023.70250267332
2023-01-15T13:14:23.543Z,98029.69722273668
2023-01-15T13:17:31.160Z,98018.47419379734
2023-01-15T13:21:17.556Z,98014.34112846508
2023-01-15T13:25:06.931Z,98021.20596905616
2023-01-15T13:27:37.575Z,98027.92918851302
2023-01-15T13:31:36.219Z,98011.65883083716
2023-01-15T13:34:29.703Z,98001.52358796749
2023-01-15T13:37:36.323Z,97999.96580053952
2023-01-15T13:42:51.377Z,97992.53865816396
2023-01-15T13:45:04.746Z,97992.82065767265
2023-01-15T13:47:26.046Z,97993.11325832983
2023-01-15T13:51:28.075Z,97998.76309178925
2023-01-15T13:54:23.887Z,97992.9470600231
2023-01-15T13:57:42.735Z,97987.011313402
2023-01-15T14:01:43.850Z,97979.34417819105
2023-01-15T14:04:53.986Z,97981.36898224097
2023-01-15T14:07:47.437Z,97989.36753976757
2023-01-15T14:12:01.354Z,97988.54109141279
2023-01-15T14:21:29.821Z,97987.63029164687
2023-01-15T14:24:41.488Z,97980.3424845838
2023-01-15T14:27:34.110Z,97974.93914461111
2023-01-15T14:31:42.320Z,97979.50630141098
2023-01-15T14:34:24.795Z,97980.14079251433
2023-01-15T14:37:25.106Z,97978.22372980951
2023-01-15T14:41:36.440Z,97966.78015329521
2023-01-15T14:44:33.170Z,97971.76566152489
2023-01-15T14:47:26.596Z,97965.06425612184
2023-01-15T14:51:49.254Z,97961.61070118615
2023-01-15T14:54:28.383Z,97951.95850354528
2023-01-15T14:57:27.069Z,97949.45285604075
2023-01-15T15:01:34.146Z,97948.93867814967
2023-01-15T15:04:37.363Z,97962.23082375551
2023-01-15T15:07:35.122Z,97960.2074804822
2023-01-15T15:12:45.733Z,97954.6621752541
2023-01-15T15:14:28.616Z,97947.14134823222
2023-01-15T15:17:35.414Z,97943.47243552991
2023-01-15T15:31:49.097Z,97939.94948291099
2023-01-15T15:34:30.491Z,97933.95619838481
2023-01-15T15:37:48.903Z,97933.90943541337
2023-01-15T15:51:38.204Z,97940.11593435661
2023-01-15T15:54:22.942Z,97941.11730568399
2023-01-15T15:57:23.730Z,97943.64618790074
2023-01-15T16:01:27.647Z,97943.03463292537
2023-01-15T16:04:28.184Z,97946.83941720519
2023-01-15T16:07:33.852Z,97941.54023883735
2023-01-15T16:11:39.223Z,97947.32048525757
2023-01-15T16:14:45.429Z,97950.04094180222
2023-01-15T16:17:29.982Z,97939.89412952622
2023-01-15T16:21:26.131Z,97943.97915974566
2023-01-15T16:24:24.324Z,97942.41490519018
2023-01-15T16:27:51.352Z,97947.03858541473
2023-01-15T16:41:21.315Z,97944.19008218874
2023-01-15T16:44:35.873Z,97938.20173671545
2023-01-15T16:47:22.946Z,97941.05960783873
2023-01-15T16:51:35.142Z,97933.059974173
2023-01-15T16:54:55.375Z,97931.69353053957
2023-01-15T16:57:29.067Z,97929.5507659304
2023-01-15T17:01:33.614Z,97935.90531619721
2023-01-15T17:04:30.901Z,97935.51396914214
2023-01-15T17:07:30.975Z,97928.00845882617
2023-01-15T17:21:31.891Z,97921.16681377197
2023-01-15T17:24:29.590Z,97915.19512478412
2023-01-15T17:27:22.524Z,97913.97922662848
2023-01-15T17:31:27.339Z,97911.34099938525
2023-01-15T17:34:25.462Z,97906.4268127196
2023-01-15T17:37:34.386Z,97896.03784765986
2023-01-15T17:41:34.052Z,97893.56499551056
2023-01-15T17:44:52.502Z,97891.29108163294
2023-01-15T17:51:23.777Z,97887.50994467949
2023-01-15T18:11:16.114Z,97878.18947565943
2023-01-15T18:14:16.585Z,97880.26446838005
2023-01-15T18:17:16.546Z,97870.96697332802
2023-01-15T18:21:16.285Z,97878.69293039782
2023-01-15T18:24:17.578Z,97879.43710500936
2023-01-15T18:27:17.489Z,97888.91260363058
2023-01-15T18:31:16.185Z,97886.40704887225
2023-01-15T18:34:16.751Z,97880.8813593708
2023-01-15T18:37:16.686Z,97882.32855329393
2023-01-15T18:46:43.621Z,97881.49539605976
2023-01-15T18:47:17.823Z,97871.19363428655
2023-01-15T18:51:16.339Z,97869.0487166497
2023-01-15T18:54:16.748Z,97858.03124652164
2023-01-15T18:57:16.977Z,97859.14693803692
2023-01-15T19:01:16.629Z,97853.01748696002
2023-01-15T19:04:18.984Z,97843.90800846642
2023-01-15T19:07:17.084Z,97847.32781421098
2023-01-15T19:11:16.675Z,97851.63093941672
2023-01-15T19:21:18.881Z,97819.7028817363
2023-01-15T19:24:16.985Z,97817.44534654744
2023-01-15T19:27:17.201Z,97811.16721069091
2023-01-15T19:31:48.279Z,97816.45518480535
2023-01-15T19:34:32.995Z,97804.82574768596
2023-01-15T19:37:16.356Z,97798.58384800647
2023-01-15T19:51:16.398Z,97773.39669373228
2023-01-15T19:54:55.960Z,97791.56356078228
2023-01-15T19:57:20.766Z,97786.78021747626
2023-01-15T20:01:18.062Z,97792.76456541779
2023-01-15T20:04:17.157Z,97783.15283730702
2023-01-15T20:07:17.013Z,97782.2484859785
2023-01-15T20:11:16.995Z,97765.42593557178
2023-01-15T20:14:16.904Z,97767.16638162413
2023-01-15T20:17:17.471Z,97759.21011534335
2023-01-15T20:21:17.525Z,97741.60474910979
2023-01-15T20:24:16.947Z,97736.13938570076
2023-01-15T20:27:17.058Z,97740.86381497505
2023-01-15T20:31:18.105Z,97735.57521881016
2023-01-15T20:34:16.763Z,97734.58662822003
2023-01-15T20:37:17.072Z,97728.55739967953
2023-01-15T20:51:18.446Z,97695.52954651155
2023-01-15T20:54:17.474Z,97691.958181401
2023-01-15T20:57:16.917Z,97686.6890296094
2023-01-15T21:01:16.295Z,97691.10435072357
2023-01-15T21:04:16.522Z,97690.26943222899
2023-01-15T21:07:16.716Z,97687.77104035675
2023-01-15T21:11:16.218Z,97684.77956897876
2023-01-15T21:14:16.664Z,97685.87595277259
2023-01-15T21:17:16.965Z,97683.43896767937
2023-01-15T21:21:18.229Z,97684.66093095687
2023-01-15T21:31:16.035Z,97675.73451333075
2023-01-15T21:34:17.195Z,97671.96743962342
2023-01-15T21:37:16.888Z,97668.44794439437
2023-01-15T21:41:16.743Z,97663.17366882993
2023-01-15T21:44:43.943Z,97662.06526977103
2023-01-15T21:47:18.507Z,97663.06007775574
2023-01-15T21:51:15.968Z,97652.018749377
2023-01-15T21:54:16.340Z,97644.34701958977
2023-01-15T21:57:16.416Z,97645.1747721798
2023-01-15T22:01:18.335Z,97645.30611894262
2023-01-15T22:04:16.501Z,97645.17205431333
2023-01-15T22:07:17.551Z,97636.95322116869
2023-01-15T22:11:16.160Z,97631.01899140353
2023-01-15T22:14:19.148Z,97633.49023990231
2023-01-15T22:17:16.619Z,97626.44069146994
2023-01-15T22:21:16.138Z,97615.98751016284
2023-01-15T22:24:17.513Z,97603.31372392687
2023-01-15T22:27:16.821Z,97607.34064624993
2023-01-15T22:31:18.187Z,97598.6644578058
2023-01-15T22:34:17.733Z,97591.81576671888
2023-01-15T22:37:17.316Z,97587.2633555974
2023-01-15T22:42:24.256Z,97584.06520807157
2023-01-15T22:44:15.886Z,97582.06077505581
2023-01-15T22:47:17.682Z,97582.06077505581
2023-01-15T22:51:15.753Z,97572.19471305664
2023-01-15T22:54:18.081Z,97573.05889039618
2023-01-15T22:57:17.261Z,97568.83314730966
2023-01-15T23:01:16.348Z,97567.00955548794
2023-01-15T23:04:18.621Z,97560.06519400439
2023-01-15T23:07:15.891Z,97558.99863441213
2023-01-15T23:11:16.217Z,97553.535059796
2023-01-15T23:14:17.741Z,97547.97976013915
2023-01-15T23:17:15.981Z,97543.11223406812
2023-01-15T23:21:20.390Z,97534.56518037201
2023-01-15T23:24:16.618Z,97526.84034200633
2023-01-15T23:27:16.686Z,97514.97447170704
2023-01-15T23:31:17.396Z,97511.98346655669
2023-01-15T23:34:16.829Z,97502.33748720626
2023-01-15T23:37:17.087Z,97498.96009496252
2023-01-15T23:41:18.619Z,97501.36303286922
2023-01-15T23:51:16.238Z,97494.59183436596
2023-01-15T23:54:16.595Z,97484.39757149658
2023-01-15T23:57:16.511Z,97474.25046849193
